createdAt,value
2019-02-23T00:00:15.181Z,18.00
2019-02-23T00:02:43.833Z,18.03
2019-02-23T00:05:12.529Z,19.60
2019-02-23T00:07:41.385Z,20.40
2019-02-23T00:10:10.111Z,20.62
2019-02-23T00:12:38.861Z,20.90
2019-02-23T00:15:08.448Z,20.27
2019-02-23T00:17:37.206Z,18.30
2019-02-23T00:20:08.420Z,19.90
2019-02-23T00:22:37.118Z,20.80
2019-02-23T00:25:06.051Z,20.07
2019-02-23T00:27:34.776Z,20.10
2019-02-23T00:30:03.510Z,21.10
2019-02-23T00:32:32.326Z,18.70
2019-02-23T00:35:00.973Z,21.60
2019-02-23T00:37:29.747Z,22.70
2019-02-23T00:39:58.388Z,17.60
2019-02-23T00:42:27.117Z,21.17
2019-02-23T00:44:55.766Z,18.30
2019-02-23T00:47:24.406Z,20.57
2019-02-23T00:49:53.591Z,23.30
2019-02-23T00:52:22.254Z,18.90
2019-02-23T00:54:50.954Z,17.57
2019-02-23T00:57:19.739Z,20.33
2019-02-23T00:59:48.480Z,19.50
2019-02-23T01:02:17.191Z,20.00
2019-02-23T01:04:45.967Z,20.80
2019-02-23T01:07:14.702Z,20.97
2019-02-23T01:09:43.420Z,21.17
2019-02-23T01:12:12.222Z,23.37
2019-02-23T01:14:40.932Z,21.90
2019-02-23T01:17:09.657Z,21.57
2019-02-23T01:19:47.410Z,19.77
2019-02-23T01:22:08.880Z,21.03
2019-02-23T01:24:37.438Z,20.30
2019-02-23T01:27:06.177Z,21.00
2019-02-23T01:29:34.974Z,21.90
2019-02-23T01:32:03.708Z,21.83
2019-02-23T01:34:32.541Z,18.90
2019-02-23T01:37:01.265Z,21.00
2019-02-23T01:39:29.978Z,20.68
2019-02-23T01:41:58.769Z,20.00
2019-02-23T01:44:27.612Z,20.23
2019-02-23T01:46:56.238Z,21.07
2019-02-23T01:49:24.949Z,21.90
2019-02-23T01:51:53.795Z,20.97
2019-02-23T01:54:22.529Z,19.13
2019-02-23T01:56:51.276Z,21.43
2019-02-23T01:59:19.999Z,21.75
2019-02-23T02:01:48.729Z,20.80
2019-02-23T02:04:17.409Z,20.25
2019-02-23T02:06:46.216Z,19.97
2019-02-23T02:09:15.021Z,20.07
2019-02-23T02:11:43.708Z,23.30
2019-02-23T02:14:12.443Z,21.00
2019-02-23T02:16:42.024Z,21.27
2019-02-23T02:19:10.795Z,20.27
2019-02-23T02:21:39.545Z,19.90
2019-02-23T02:24:08.285Z,19.73
2019-02-23T02:26:37.044Z,20.53
2019-02-23T02:29:05.798Z,20.60
2019-02-23T02:31:34.493Z,19.80
2019-02-23T02:34:08.067Z,21.60
2019-02-23T02:36:36.780Z,20.30
2019-02-23T02:39:11.163Z,20.80
2019-02-23T02:41:39.821Z,19.57
2019-02-23T02:44:08.437Z,21.20
2019-02-23T02:46:37.153Z,20.10
2019-02-23T02:49:05.892Z,22.40
2019-02-23T02:51:34.604Z,19.47
2019-02-23T02:54:03.363Z,19.73
2019-02-23T02:56:32.122Z,19.77
2019-02-23T02:59:00.881Z,22.35
2019-02-23T03:01:29.628Z,21.17
2019-02-23T03:03:58.330Z,19.27
2019-02-23T03:06:27.071Z,21.70
2019-02-23T03:08:55.918Z,19.43
2019-02-23T03:11:24.833Z,22.10
2019-02-23T03:13:53.526Z,21.30
2019-02-23T03:16:22.284Z,18.97
2019-02-23T03:18:51.042Z,20.10
2019-02-23T03:21:19.762Z,19.90
2019-02-23T03:23:48.448Z,20.37
2019-02-23T03:26:17.178Z,20.93
2019-02-23T03:28:45.888Z,20.60
2019-02-23T03:31:14.599Z,21.30
2019-02-23T03:33:43.207Z,20.37
2019-02-23T03:36:11.956Z,20.77
2019-02-23T03:38:40.760Z,22.77
2019-02-23T03:41:09.623Z,21.87
2019-02-23T03:43:38.389Z,20.77
2019-02-23T03:46:07.145Z,20.97
2019-02-23T03:48:35.869Z,20.83
2019-02-23T03:51:05.178Z,21.33
2019-02-23T03:53:33.942Z,22.20
2019-02-23T03:56:02.680Z,20.07
2019-02-23T03:58:31.397Z,20.70
2019-02-23T04:01:00.182Z,19.37
2019-02-23T04:03:29.067Z,21.70
2019-02-23T04:05:57.769Z,19.60
2019-02-23T04:08:26.403Z,21.60
2019-02-23T04:10:55.136Z,19.87
2019-02-23T04:13:23.767Z,21.20
2019-02-23T04:15:52.444Z,21.10
2019-02-23T04:18:21.172Z,23.62
2019-02-23T04:21:01.366Z,20.73
2019-02-23T04:23:20.388Z,21.40
2019-02-23T04:25:49.096Z,20.47
2019-02-23T04:28:17.859Z,21.70
2019-02-23T04:30:46.578Z,26.90
2019-02-23T04:33:15.205Z,26.33
2019-02-23T04:35:46.496Z,22.93
2019-02-23T04:38:14.341Z,19.03
2019-02-23T04:40:43.050Z,20.30
2019-02-23T04:43:11.710Z,20.40
2019-02-23T04:45:40.425Z,19.20
2019-02-23T04:48:09.133Z,19.43
2019-02-23T04:50:37.819Z,20.13
2019-02-23T04:53:06.532Z,29.70
2019-02-23T04:55:36.729Z,40.00
2019-02-23T04:58:05.865Z,29.40
2019-02-23T05:00:37.403Z,22.67
2019-02-23T05:03:07.109Z,88.27
2019-02-23T05:05:35.848Z,48.13
2019-02-23T05:08:05.188Z,44.80
2019-02-23T05:10:33.935Z,46.70
2019-02-23T05:13:02.569Z,27.90
2019-02-23T05:15:31.295Z,24.53
2019-02-23T05:18:00.008Z,22.23
2019-02-23T05:20:28.745Z,22.30
2019-02-23T05:22:57.606Z,21.70
2019-02-23T05:25:26.349Z,18.47
2019-02-23T05:27:55.047Z,21.50
2019-02-23T05:30:23.849Z,22.70
2019-02-23T05:32:52.541Z,22.37
2019-02-23T05:35:21.218Z,20.77
2019-02-23T05:37:49.998Z,21.57
2019-02-23T05:40:18.683Z,23.00
2019-02-23T05:42:47.743Z,18.60
2019-02-23T05:45:16.678Z,20.05
2019-02-23T05:47:45.349Z,21.00
2019-02-23T05:50:14.174Z,19.15
2019-02-23T05:52:43.031Z,21.07
2019-02-23T05:55:11.686Z,20.68
2019-02-23T05:57:40.322Z,20.10
2019-02-23T06:00:14.765Z,18.93
2019-02-23T06:02:45.277Z,19.87
2019-02-23T06:05:14.146Z,20.80
2019-02-23T06:07:44.017Z,19.30
2019-02-23T06:10:12.770Z,20.60
2019-02-23T06:12:41.591Z,18.13
2019-02-23T06:15:12.483Z,20.50
2019-02-23T06:17:41.259Z,22.10
2019-02-23T06:20:10.934Z,20.57
2019-02-23T06:22:39.732Z,21.17
2019-02-23T06:25:09.878Z,27.77
2019-02-23T06:27:38.610Z,33.50
2019-02-23T06:30:10.388Z,33.17
2019-02-23T06:32:39.112Z,27.80
2019-02-23T06:35:10.223Z,30.40
2019-02-23T06:37:38.964Z,25.10
2019-02-23T06:40:12.215Z,22.13
2019-02-23T06:42:41.019Z,20.73
2019-02-23T06:45:12.205Z,20.83
2019-02-23T06:47:41.007Z,19.40
2019-02-23T06:50:09.838Z,17.87
2019-02-23T06:52:38.584Z,20.40
2019-02-23T06:55:08.123Z,19.33
2019-02-23T06:57:37.994Z,18.20
2019-02-23T07:00:09.753Z,18.57
2019-02-23T07:02:38.558Z,20.20
2019-02-23T07:05:07.599Z,21.27
2019-02-23T07:07:36.357Z,20.30
2019-02-23T07:10:08.593Z,20.30
2019-02-23T07:12:37.487Z,20.37
2019-02-23T07:15:08.327Z,19.70
2019-02-23T07:17:37.028Z,19.13
2019-02-23T07:20:08.382Z,20.33
2019-02-23T07:22:37.167Z,20.37
2019-02-23T07:25:08.182Z,16.40
2019-02-23T07:27:36.928Z,17.53
2019-02-23T07:30:08.545Z,16.40
2019-02-23T07:32:37.194Z,17.97
2019-02-23T07:35:07.513Z,16.30
2019-02-23T07:37:36.256Z,16.30
2019-02-23T07:40:08.320Z,16.37
2019-02-23T07:42:37.089Z,15.32
2019-02-23T07:45:08.704Z,15.00
2019-02-23T07:47:37.575Z,15.03
2019-02-23T07:50:11.704Z,14.63
2019-02-23T07:52:40.398Z,15.60
2019-02-23T07:55:09.407Z,14.43
2019-02-23T07:57:38.100Z,13.77
2019-02-23T08:00:10.705Z,15.53
2019-02-23T08:02:39.749Z,14.83
2019-02-23T08:05:10.712Z,14.07
2019-02-23T08:07:40.080Z,13.60
2019-02-23T08:10:11.847Z,14.57
2019-02-23T08:12:40.680Z,15.70
2019-02-23T08:15:11.782Z,14.80
2019-02-23T08:17:40.570Z,12.73
2019-02-23T08:20:16.560Z,14.93
2019-02-23T08:22:45.249Z,13.70
2019-02-23T08:25:17.188Z,14.68
2019-02-23T08:27:46.651Z,13.72
2019-02-23T08:30:19.286Z,12.20
2019-02-23T08:32:49.186Z,11.47
2019-02-23T08:35:24.680Z,12.78
2019-02-23T08:38:03.319Z,13.93
2019-02-23T08:40:34.227Z,11.77
2019-02-23T08:43:03.217Z,8.28
2019-02-23T08:45:32.213Z,12.18
2019-02-23T08:48:01.039Z,12.03
2019-02-23T08:50:29.869Z,13.63
2019-02-23T08:53:01.266Z,11.90
2019-02-23T08:55:31.103Z,13.73
2019-02-23T08:58:00.668Z,12.97
2019-02-23T09:00:30.478Z,12.83
2019-02-23T09:02:59.252Z,12.50
2019-02-23T09:05:28.122Z,12.90
2019-02-23T09:07:56.862Z,13.57
2019-02-23T09:10:25.790Z,12.10
2019-02-23T09:12:54.816Z,13.27
2019-02-23T09:15:24.277Z,10.97
2019-02-23T09:17:53.297Z,13.43
2019-02-23T09:20:29.296Z,12.88
2019-02-23T09:23:00.158Z,11.80
2019-02-23T09:25:26.073Z,12.03
2019-02-23T09:27:57.578Z,12.93
2019-02-23T09:30:26.819Z,13.07
2019-02-23T09:33:07.442Z,11.40
2019-02-23T09:35:39.579Z,11.95
2019-02-23T09:38:08.319Z,10.40
2019-02-23T09:40:39.649Z,11.73
2019-02-23T09:43:13.421Z,12.50
2019-02-23T09:45:44.151Z,12.07
2019-02-23T09:48:12.926Z,11.30
2019-02-23T09:50:41.743Z,13.57
2019-02-23T09:53:11.574Z,12.75
2019-02-23T09:55:40.872Z,12.60
2019-02-23T09:58:09.615Z,12.07
2019-02-23T10:00:38.536Z,12.80
2019-02-23T10:03:07.268Z,12.13
2019-02-23T10:05:38.138Z,12.80
2019-02-23T10:08:06.512Z,12.23
2019-02-23T10:10:36.912Z,11.83
2019-02-23T10:13:11.235Z,12.20
2019-02-23T10:15:41.110Z,13.27
2019-02-23T10:18:13.742Z,11.05
2019-02-23T10:20:44.006Z,11.57
2019-02-23T10:23:21.571Z,11.55
2019-02-23T10:25:45.450Z,14.07
2019-02-23T10:28:14.532Z,12.90
2019-02-23T10:30:48.082Z,12.33
2019-02-23T10:33:47.687Z,12.23
2019-02-23T10:36:35.658Z,11.20
2019-02-23T10:39:25.067Z,12.63
2019-02-23T10:41:55.408Z,12.30
2019-02-23T10:44:34.855Z,10.50
2019-02-23T10:47:12.756Z,12.10
2019-02-23T10:49:41.554Z,10.40
2019-02-23T10:52:11.512Z,12.43
2019-02-23T10:54:40.536Z,11.77
2019-02-23T10:57:10.375Z,11.95
2019-02-23T10:59:39.243Z,10.27
2019-02-23T11:02:08.865Z,12.40
2019-02-23T11:04:38.109Z,12.13
2019-02-23T11:07:06.787Z,12.27
2019-02-23T11:09:37.252Z,10.50
2019-02-23T11:12:05.978Z,10.63
2019-02-23T11:14:34.707Z,10.60
2019-02-23T11:17:06.534Z,10.80
2019-02-23T11:19:37.547Z,12.67
2019-02-23T11:22:06.596Z,10.50
2019-02-23T11:24:35.470Z,11.07
2019-02-23T11:27:05.371Z,10.32
2019-02-23T11:29:34.302Z,10.90
2019-02-23T11:32:03.066Z,10.43
2019-02-23T11:34:32.020Z,11.57
2019-02-23T11:37:01.156Z,10.87
2019-02-23T11:39:29.864Z,11.77
2019-02-23T11:41:58.587Z,9.50
2019-02-23T11:44:27.481Z,11.30
2019-02-23T11:47:00.652Z,9.77
2019-02-23T11:49:29.338Z,10.80
2019-02-23T11:51:58.096Z,13.37
2019-02-23T11:54:26.902Z,12.23
2019-02-23T11:56:55.578Z,11.30
2019-02-23T11:59:24.343Z,11.53
2019-02-23T12:01:53.105Z,12.28
2019-02-23T12:04:21.921Z,11.83
2019-02-23T12:06:50.655Z,11.30
2019-02-23T12:09:19.307Z,11.30
2019-02-23T12:11:48.082Z,11.90
2019-02-23T12:14:16.810Z,12.95
2019-02-23T12:16:45.454Z,11.83
2019-02-23T12:19:14.196Z,12.03
2019-02-23T12:21:42.886Z,10.60
2019-02-23T12:24:11.566Z,10.55
2019-02-23T12:26:40.269Z,11.47
2019-02-23T12:29:08.961Z,9.90
2019-02-23T12:31:37.858Z,11.00
2019-02-23T12:34:06.530Z,10.97
2019-02-23T12:36:35.173Z,9.90
2019-02-23T12:39:05.683Z,10.87
2019-02-23T12:41:34.450Z,9.53
2019-02-23T12:44:03.211Z,11.20
2019-02-23T12:46:31.919Z,11.13
2019-02-23T12:49:00.544Z,9.17
2019-02-23T12:51:29.303Z,8.47
2019-02-23T12:53:58.050Z,9.90
2019-02-23T12:56:26.880Z,11.30
2019-02-23T12:58:55.718Z,10.13
2019-02-23T13:01:24.605Z,11.20
2019-02-23T13:03:53.346Z,9.57
2019-02-23T13:06:21.994Z,10.25
2019-02-23T13:09:13.162Z,10.50
2019-02-23T13:11:44.305Z,9.43
2019-02-23T13:14:38.481Z,9.63
2019-02-23T13:17:21.859Z,9.13
2019-02-23T13:20:14.469Z,9.87
2019-02-23T13:22:54.809Z,8.53
2019-02-23T13:25:32.282Z,9.70
2019-02-23T13:28:20.453Z,9.40
2019-02-23T13:31:00.938Z,9.30
2019-02-23T13:33:43.029Z,10.50
2019-02-23T13:36:25.654Z,9.23
2019-02-23T13:39:07.093Z,9.20
2019-02-23T13:41:43.355Z,9.20
2019-02-23T13:44:19.428Z,9.27
2019-02-23T13:47:04.693Z,8.27
2019-02-23T13:50:11.124Z,9.07
2019-02-23T13:53:01.402Z,8.60
2019-02-23T13:55:52.935Z,8.90
2019-02-23T13:58:30.531Z,10.37
2019-02-23T14:01:02.258Z,9.30
2019-02-23T14:03:36.591Z,9.30
2019-02-23T14:06:20.144Z,10.23
2019-02-23T14:09:09.029Z,9.77
2019-02-23T14:12:03.458Z,10.33
2019-02-23T14:14:40.983Z,10.10
2019-02-23T14:17:15.343Z,10.88
2019-02-23T14:20:05.233Z,9.57
2019-02-23T14:22:48.750Z,10.00
2019-02-23T14:25:35.438Z,9.20
2019-02-23T14:28:18.891Z,9.60
2019-02-23T14:30:56.238Z,10.10
2019-02-23T14:33:27.847Z,9.67
2019-02-23T14:36:11.628Z,9.93
2019-02-23T14:39:05.590Z,9.33
2019-02-23T14:41:43.043Z,10.73
2019-02-23T14:44:17.282Z,9.15
2019-02-23T14:46:54.688Z,10.30
2019-02-23T14:49:32.007Z,9.13
2019-02-23T14:52:18.677Z,11.33
2019-02-23T14:55:14.229Z,8.90
2019-02-23T14:57:57.640Z,9.43
2019-02-23T15:00:35.189Z,10.10
2019-02-23T15:03:13.730Z,9.80
2019-02-23T15:05:57.365Z,9.83
2019-02-23T15:08:47.010Z,8.93
2019-02-23T15:11:33.569Z,9.43
2019-02-23T15:14:08.004Z,10.25
2019-02-23T15:16:59.048Z,9.23
2019-02-23T15:19:30.785Z,8.65
2019-02-23T15:22:35.390Z,8.73
2019-02-23T15:25:13.142Z,8.30
2019-02-23T15:27:44.293Z,8.90
2019-02-23T15:30:21.559Z,9.03
2019-02-23T15:33:13.953Z,9.30
2019-02-23T15:35:52.428Z,7.87
2019-02-23T15:38:33.480Z,8.50
2019-02-23T15:41:05.163Z,8.90
2019-02-23T15:43:56.366Z,9.40
2019-02-23T15:46:39.266Z,9.65
2019-02-23T15:49:31.789Z,9.30
2019-02-23T15:52:02.274Z,9.37
2019-02-23T15:54:30.954Z,9.77
2019-02-23T15:57:00.182Z,10.00
2019-02-23T15:59:28.967Z,8.47
2019-02-23T16:01:57.615Z,9.20
2019-02-23T16:04:26.459Z,11.27
2019-02-23T16:06:55.044Z,10.13
2019-02-23T16:09:23.800Z,9.20
2019-02-23T16:11:52.416Z,10.30
2019-02-23T16:14:21.100Z,9.68
2019-02-23T16:16:49.937Z,12.03
2019-02-23T16:19:19.171Z,10.48
2019-02-23T16:21:47.958Z,10.63
2019-02-23T16:24:16.816Z,10.30
2019-02-23T16:26:51.066Z,11.17
2019-02-23T16:29:19.142Z,10.80
2019-02-23T16:31:48.087Z,11.10
2019-02-23T16:34:17.366Z,9.43
2019-02-23T16:36:46.233Z,11.67
2019-02-23T16:39:14.960Z,12.50
2019-02-23T16:41:43.946Z,11.77
2019-02-23T16:44:12.599Z,11.67
2019-02-23T16:46:41.540Z,11.60
2019-02-23T16:49:12.947Z,13.00
2019-02-23T16:51:41.709Z,11.13
2019-02-23T16:54:10.470Z,12.50
2019-02-23T16:56:39.275Z,12.63
2019-02-23T16:59:07.918Z,11.90
2019-02-23T17:01:36.688Z,12.70
2019-02-23T17:04:05.419Z,14.65
2019-02-23T17:06:34.088Z,13.40
2019-02-23T17:09:02.897Z,13.40
2019-02-23T17:11:34.385Z,12.82
2019-02-23T17:14:03.298Z,13.67
2019-02-23T17:16:32.593Z,16.42
2019-02-23T17:19:01.653Z,16.10
2019-02-23T17:21:30.620Z,12.90
2019-02-23T17:23:59.598Z,13.47
2019-02-23T17:26:29.000Z,14.10
2019-02-23T17:28:57.782Z,14.63
2019-02-23T17:31:26.861Z,13.88
2019-02-23T17:33:55.578Z,14.60
2019-02-23T17:36:24.271Z,12.37
2019-02-23T17:38:52.999Z,13.90
2019-02-23T17:41:21.786Z,12.50
2019-02-23T17:43:50.493Z,13.17
2019-02-23T17:46:19.250Z,14.80
2019-02-23T17:48:47.976Z,15.00
2019-02-23T17:51:16.643Z,14.80
2019-02-23T17:53:45.202Z,14.40
2019-02-23T17:56:14.735Z,14.78
2019-02-23T17:58:43.463Z,15.27
2019-02-23T18:01:12.223Z,15.63
2019-02-23T18:03:44.245Z,16.33
2019-02-23T18:06:12.872Z,14.28
2019-02-23T18:08:41.628Z,15.67
2019-02-23T18:11:10.715Z,14.20
2019-02-23T18:13:39.591Z,14.70
2019-02-23T18:16:08.410Z,13.30
2019-02-23T18:18:37.162Z,12.37
2019-02-23T18:21:06.288Z,12.30
2019-02-23T18:23:35.083Z,12.07
2019-02-23T18:26:03.844Z,11.20
2019-02-23T18:28:33.459Z,11.50
2019-02-23T18:31:02.490Z,11.03
2019-02-23T18:33:31.147Z,10.53
2019-02-23T18:36:03.398Z,11.23
2019-02-23T18:38:32.415Z,11.03
2019-02-23T18:41:01.129Z,11.68
2019-02-23T18:43:34.863Z,11.10
2019-02-23T18:46:03.945Z,9.67
2019-02-23T18:48:32.726Z,10.95
2019-02-23T18:51:04.671Z,11.57
2019-02-23T18:53:34.774Z,12.00
2019-02-23T18:56:06.036Z,11.97
2019-02-23T18:58:34.669Z,10.43
2019-02-23T19:01:03.458Z,11.37
2019-02-23T19:03:32.086Z,12.63
2019-02-23T19:06:09.632Z,11.53
2019-02-23T19:08:39.050Z,13.05
2019-02-23T19:11:07.803Z,14.87
2019-02-23T19:13:36.740Z,14.10
2019-02-23T19:16:05.679Z,15.60
2019-02-23T19:18:34.700Z,14.60
2019-02-23T19:21:03.452Z,14.95
2019-02-23T19:23:32.086Z,15.68
2019-02-23T19:26:01.234Z,13.00
2019-02-23T19:28:29.872Z,12.07
2019-02-23T19:30:58.556Z,11.00
2019-02-23T19:33:27.318Z,12.50
2019-02-23T19:35:56.029Z,11.97
2019-02-23T19:38:24.602Z,13.60
2019-02-23T19:40:53.362Z,15.47
2019-02-23T19:43:21.951Z,12.68
2019-02-23T19:45:50.601Z,12.73
2019-02-23T19:48:20.409Z,13.60
2019-02-23T19:50:52.599Z,13.93
2019-02-23T19:53:22.097Z,14.15
2019-02-23T19:55:51.663Z,15.88
2019-02-23T19:58:21.228Z,14.40
2019-02-23T20:00:50.849Z,13.07
2019-02-23T20:03:20.530Z,15.38
2019-02-23T20:05:50.126Z,14.30
2019-02-23T20:08:19.776Z,15.88
2019-02-23T20:10:49.722Z,14.17
2019-02-23T20:13:19.327Z,14.37
2019-02-23T20:15:48.128Z,16.33
2019-02-23T20:18:16.848Z,13.57
2019-02-23T20:20:45.884Z,16.15
2019-02-23T20:23:14.632Z,13.33
2019-02-23T20:25:43.338Z,15.83
2019-02-23T20:28:12.146Z,13.60
2019-02-23T20:30:40.897Z,12.20
2019-02-23T20:33:09.641Z,12.05
2019-02-23T20:35:38.451Z,11.80
2019-02-23T20:38:07.308Z,12.67
2019-02-23T20:40:37.310Z,15.57
2019-02-23T20:43:05.943Z,17.05
2019-02-23T20:45:34.579Z,13.40
2019-02-23T20:48:03.455Z,13.07
2019-02-23T20:50:32.201Z,14.00
2019-02-23T20:53:00.843Z,16.50
2019-02-23T20:55:29.448Z,14.40
2019-02-23T20:57:58.939Z,12.07
2019-02-23T21:00:27.706Z,12.93
2019-02-23T21:02:56.381Z,11.47
2019-02-23T21:05:25.184Z,13.25
2019-02-23T21:07:55.079Z,15.18
2019-02-23T21:10:24.735Z,13.77
2019-02-23T21:12:53.551Z,16.07
2019-02-23T21:15:22.265Z,13.90
2019-02-23T21:17:51.004Z,13.18
2019-02-23T21:20:19.633Z,15.50
2019-02-23T21:22:48.580Z,16.75
2019-02-23T21:25:17.265Z,17.35
2019-02-23T21:27:46.011Z,13.90
2019-02-23T21:30:14.736Z,14.00
2019-02-23T21:32:43.340Z,15.50
2019-02-23T21:35:12.142Z,14.47
2019-02-23T21:37:46.474Z,12.15
2019-02-23T21:40:15.645Z,14.30
2019-02-23T21:42:44.378Z,16.60
2019-02-23T21:45:13.353Z,14.70
2019-02-23T21:47:42.101Z,11.97
2019-02-23T21:50:11.253Z,13.83
2019-02-23T21:52:40.006Z,14.00
2019-02-23T21:55:10.824Z,14.25
2019-02-23T21:57:40.726Z,13.47
2019-02-23T22:00:14.343Z,13.43
2019-02-23T22:02:43.925Z,13.00
2019-02-23T22:05:13.113Z,13.30
2019-02-23T22:07:41.922Z,12.77
2019-02-23T22:10:10.935Z,12.50
2019-02-23T22:12:39.766Z,16.37
2019-02-23T22:15:10.836Z,11.07
2019-02-23T22:17:39.732Z,11.50
2019-02-23T22:20:09.378Z,13.33
2019-02-23T22:22:38.457Z,13.00
2019-02-23T22:25:07.268Z,13.33
2019-02-23T22:27:35.915Z,12.45
2019-02-23T22:30:07.981Z,12.53
2019-02-23T22:32:37.366Z,15.60
2019-02-23T22:35:06.509Z,13.10
2019-02-23T22:37:35.266Z,13.27
2019-02-23T22:40:07.702Z,11.30
2019-02-23T22:42:36.534Z,11.30
2019-02-23T22:45:07.394Z,14.80
2019-02-23T22:47:36.186Z,14.63
2019-02-23T22:50:07.765Z,12.00
2019-02-23T22:52:36.664Z,13.40
2019-02-23T22:55:07.723Z,12.90
2019-02-23T22:57:40.848Z,13.53
2019-02-23T23:00:32.530Z,11.73
2019-02-23T23:03:01.213Z,10.77
2019-02-23T23:05:30.349Z,11.70
2019-02-23T23:07:59.461Z,10.40
2019-02-23T23:10:28.225Z,11.33
2019-02-23T23:12:57.801Z,10.20
2019-02-23T23:15:27.210Z,10.20
2019-02-23T23:17:56.106Z,11.20
2019-02-23T23:20:24.839Z,10.60
2019-02-23T23:22:53.634Z,13.20
2019-02-23T23:25:22.437Z,11.03
2019-02-23T23:27:51.157Z,12.93
2019-02-23T23:30:19.970Z,13.23
2019-02-23T23:32:48.918Z,11.33
2019-02-23T23:35:18.447Z,12.15
2019-02-23T23:37:47.150Z,11.38
2019-02-23T23:40:15.744Z,14.28
2019-02-23T23:42:44.402Z,17.82
2019-02-23T23:45:13.699Z,15.27
2019-02-23T23:47:42.764Z,13.13
2019-02-23T23:50:11.670Z,13.00
2019-02-23T23:52:40.379Z,13.13
2019-02-23T23:55:09.392Z,11.53
2019-02-23T23:57:38.132Z,13.30
